sensor_id;sensor_type;location;lat;lon;timestamp;pressure;altitude;pressure_sealevel;temperature;humidity
73518;BME280;61766;60.318;25.044;2023-04-23T00:02:05;100913.72;;;10.31;31.53
73518;BME280;61766;60.318;25.044;2023-04-23T00:04:30;100913.97;;;10.22;31.67
73518;BME280;61766;60.318;25.044;2023-04-23T00:06:56;100913.86;;;10.14;32.11
73518;BME280;61766;60.318;25.044;2023-04-23T00:09:22;100913.40;;;10.27;31.73
73518;BME280;61766;60.318;25.044;2023-04-23T00:11:46;100912.14;;;10.33;31.53
73518;BME280;61766;60.318;25.044;2023-04-23T00:14:11;100908.21;;;10.08;31.41
73518;BME280;61766;60.318;25.044;2023-04-23T00:16:37;100911.47;;;10.10;31.39
73518;BME280;61766;60.318;25.044;2023-04-23T00:19:01;100910.16;;;10.11;31.57
73518;BME280;61766;60.318;25.044;2023-04-23T00:21:26;100912.50;;;10.24;31.71
73518;BME280;61766;60.318;25.044;2023-04-23T00:23:51;100907.85;;;10.00;31.44
73518;BME280;61766;60.318;25.044;2023-04-23T00:26:16;100902.41;;;10.30;31.43
73518;BME280;61766;60.318;25.044;2023-04-23T00:28:41;100902.62;;;10.33;31.33
73518;BME280;61766;60.318;25.044;2023-04-23T00:31:07;100902.43;;;10.14;31.17
73518;BME280;61766;60.318;25.044;2023-04-23T00:33:32;100905.71;;;10.14;31.13
73518;BME280;61766;60.318;25.044;2023-04-23T00:35:57;100907.53;;;9.90;31.43
73518;BME280;61766;60.318;25.044;2023-04-23T00:38:22;100907.02;;;10.06;31.46
73518;BME280;61766;60.318;25.044;2023-04-23T00:40:47;100907.13;;;10.04;31.46
73518;BME280;61766;60.318;25.044;2023-04-23T00:43:12;100904.55;;;9.96;31.48
73518;BME280;61766;60.318;25.044;2023-04-23T00:45:37;100903.75;;;9.92;31.77
73518;BME280;61766;60.318;25.044;2023-04-23T00:48:03;100903.90;;;9.53;31.73
73518;BME280;61766;60.318;25.044;2023-04-23T00:50:28;100907.88;;;9.68;32.22
73518;BME280;61766;60.318;25.044;2023-04-23T00:52:53;100906.67;;;9.63;32.26
73518;BME280;61766;60.318;25.044;2023-04-23T00:55:18;100902.36;;;9.63;32.30
73518;BME280;61766;60.318;25.044;2023-04-23T00:57:43;100900.43;;;9.63;32.38
73518;BME280;61766;60.318;25.044;2023-04-23T01:00:09;100899.22;;;9.62;32.53
73518;BME280;61766;60.318;25.044;2023-04-23T01:02:34;100897.09;;;9.39;32.61
73518;BME280;61766;60.318;25.044;2023-04-23T01:05:00;100897.36;;;9.37;32.41
73518;BME280;61766;60.318;25.044;2023-04-23T01:07:24;100896.84;;;9.53;32.32
73518;BME280;61766;60.318;25.044;2023-04-23T01:09:50;100896.82;;;9.37;32.12
73518;BME280;61766;60.318;25.044;2023-04-23T01:12:15;100894.71;;;9.86;31.89
73518;BME280;61766;60.318;25.044;2023-04-23T01:14:40;100894.90;;;9.30;32.04
73518;BME280;61766;60.318;25.044;2023-04-23T01:17:05;100898.78;;;9.23;32.48
73518;BME280;61766;60.318;25.044;2023-04-23T01:19:30;100903.67;;;9.18;32.54
73518;BME280;61766;60.318;25.044;2023-04-23T01:21:56;100901.60;;;9.19;32.73
73518;BME280;61766;60.318;25.044;2023-04-23T01:24:21;100901.75;;;9.20;32.32
73518;BME280;61766;60.318;25.044;2023-04-23T01:26:46;100900.90;;;9.23;32.11
73518;BME280;61766;60.318;25.044;2023-04-23T01:29:12;100899.32;;;9.73;32.26
73518;BME280;61766;60.318;25.044;2023-04-23T01:31:36;100897.68;;;9.25;32.51
73518;BME280;61766;60.318;25.044;2023-04-23T01:34:02;100895.45;;;9.23;32.68
73518;BME280;61766;60.318;25.044;2023-04-23T01:36:27;100895.81;;;9.47;32.47
73518;BME280;61766;60.318;25.044;2023-04-23T01:38:53;100895.84;;;9.24;32.19
73518;BME280;61766;60.318;25.044;2023-04-23T01:41:17;100899.36;;;9.19;32.30
73518;BME280;61766;60.318;25.044;2023-04-23T01:43:42;100896.25;;;9.12;32.58
73518;BME280;61766;60.318;25.044;2023-04-23T01:46:07;100896.89;;;9.37;32.27
73518;BME280;61766;60.318;25.044;2023-04-23T01:48:32;100902.10;;;9.09;32.32
73518;BME280;61766;60.318;25.044;2023-04-23T01:50:58;100900.10;;;9.53;32.63
73518;BME280;61766;60.318;25.044;2023-04-23T01:53:23;100902.15;;;9.07;32.43
73518;BME280;61766;60.318;25.044;2023-04-23T01:55:50;100901.81;;;9.08;32.07
73518;BME280;61766;60.318;25.044;2023-04-23T01:58:13;100900.39;;;8.97;32.28
73518;BME280;61766;60.318;25.044;2023-04-23T02:00:38;100900.58;;;9.09;32.05
73518;BME280;61766;60.318;25.044;2023-04-23T02:03:04;100896.01;;;8.93;32.29
73518;BME280;61766;60.318;25.044;2023-04-23T02:05:29;100896.52;;;9.11;32.45
73518;BME280;61766;60.318;25.044;2023-04-23T02:07:54;100900.68;;;9.13;32.56
73518;BME280;61766;60.318;25.044;2023-04-23T02:10:19;100902.41;;;9.08;32.66
73518;BME280;61766;60.318;25.044;2023-04-23T02:12:45;100901.95;;;9.06;32.64
73518;BME280;61766;60.318;25.044;2023-04-23T02:15:10;100899.74;;;9.09;32.83
73518;BME280;61766;60.318;25.044;2023-04-23T02:17:35;100897.03;;;8.91;32.78
73518;BME280;61766;60.318;25.044;2023-04-23T02:20:01;100896.46;;;8.87;33.25
73518;BME280;61766;60.318;25.044;2023-04-23T02:22:25;100890.51;;;8.42;33.85
73518;BME280;61766;60.318;25.044;2023-04-23T02:24:50;100885.56;;;8.21;34.41
73518;BME280;61766;60.318;25.044;2023-04-23T02:27:15;100888.02;;;8.46;33.99
73518;BME280;61766;60.318;25.044;2023-04-23T02:29:40;100883.45;;;8.45;33.99
73518;BME280;61766;60.318;25.044;2023-04-23T02:32:05;100883.87;;;8.28;33.91
73518;BME280;61766;60.318;25.044;2023-04-23T02:34:31;100885.09;;;8.30;33.97
73518;BME280;61766;60.318;25.044;2023-04-23T02:36:56;100886.18;;;8.54;33.68
73518;BME280;61766;60.318;25.044;2023-04-23T02:39:21;100887.62;;;8.33;33.72
73518;BME280;61766;60.318;25.044;2023-04-23T02:41:47;100889.68;;;8.28;33.46
73518;BME280;61766;60.318;25.044;2023-04-23T02:44:12;100889.64;;;8.58;33.25
73518;BME280;61766;60.318;25.044;2023-04-23T02:46:37;100888.40;;;8.30;33.15
73518;BME280;61766;60.318;25.044;2023-04-23T02:49:02;100892.17;;;8.37;33.26
73518;BME280;61766;60.318;25.044;2023-04-23T02:51:27;100889.91;;;8.24;33.59
73518;BME280;61766;60.318;25.044;2023-04-23T02:53:52;100893.56;;;8.28;33.85
73518;BME280;61766;60.318;25.044;2023-04-23T02:56:17;100888.36;;;8.13;33.97
73518;BME280;61766;60.318;25.044;2023-04-23T02:58:43;100886.92;;;8.05;33.90
73518;BME280;61766;60.318;25.044;2023-04-23T03:01:08;100890.17;;;7.98;34.10
73518;BME280;61766;60.318;25.044;2023-04-23T03:03:33;100892.73;;;7.93;34.12
73518;BME280;61766;60.318;25.044;2023-04-23T03:05:59;100892.70;;;8.13;34.17
73518;BME280;61766;60.318;25.044;2023-04-23T03:08:23;100896.70;;;8.06;34.57
73518;BME280;61766;60.318;25.044;2023-04-23T03:10:49;100897.40;;;8.07;34.41
73518;BME280;61766;60.318;25.044;2023-04-23T03:13:14;100898.35;;;8.12;34.16
73518;BME280;61766;60.318;25.044;2023-04-23T03:15:39;100897.58;;;8.43;34.12
73518;BME280;61766;60.318;25.044;2023-04-23T03:18:04;100900.82;;;8.06;34.01
73518;BME280;61766;60.318;25.044;2023-04-23T03:20:29;100903.87;;;8.13;33.88
73518;BME280;61766;60.318;25.044;2023-04-23T03:22:55;100905.89;;;8.20;33.91
73518;BME280;61766;60.318;25.044;2023-04-23T03:25:20;100902.70;;;8.17;33.99
73518;BME280;61766;60.318;25.044;2023-04-23T03:27:45;100904.74;;;8.19;33.79
73518;BME280;61766;60.318;25.044;2023-04-23T03:30:11;100909.25;;;8.12;34.06
73518;BME280;61766;60.318;25.044;2023-04-23T03:32:36;100900.57;;;8.38;33.77
73518;BME280;61766;60.318;25.044;2023-04-23T03:35:01;100899.58;;;8.44;33.60
73518;BME280;61766;60.318;25.044;2023-04-23T03:37:26;100899.94;;;8.48;33.81
73518;BME280;61766;60.318;25.044;2023-04-23T03:39:52;100901.85;;;8.52;33.54
73518;BME280;61766;60.318;25.044;2023-04-23T03:42:17;100902.06;;;8.27;33.82
73518;BME280;61766;60.318;25.044;2023-04-23T03:44:42;100901.75;;;8.32;33.84
73518;BME280;61766;60.318;25.044;2023-04-23T03:47:07;100901.20;;;8.38;33.80
73518;BME280;61766;60.318;25.044;2023-04-23T03:49:32;100897.31;;;8.48;33.51
73518;BME280;61766;60.318;25.044;2023-04-23T03:51:58;100895.74;;;8.53;33.84
73518;BME280;61766;60.318;25.044;2023-04-23T03:54:23;100891.22;;;8.55;33.94
73518;BME280;61766;60.318;25.044;2023-04-23T03:56:49;100891.57;;;8.62;33.64
73518;BME280;61766;60.318;25.044;2023-04-23T03:59:14;100890.65;;;8.67;33.95
73518;BME280;61766;60.318;25.044;2023-04-23T04:01:40;100891.54;;;8.76;33.70
73518;BME280;61766;60.318;25.044;2023-04-23T04:04:05;100889.34;;;8.36;33.82
73518;BME280;61766;60.318;25.044;2023-04-23T04:06:30;100890.80;;;8.95;33.73
73518;BME280;61766;60.318;25.044;2023-04-23T04:08:55;100889.76;;;8.61;33.95
73518;BME280;61766;60.318;25.044;2023-04-23T04:11:20;100888.61;;;9.20;34.24
73518;BME280;61766;60.318;25.044;2023-04-23T04:13:45;100890.40;;;9.08;33.97
73518;BME280;61766;60.318;25.044;2023-04-23T04:16:11;100894.97;;;8.99;34.07
73518;BME280;61766;60.318;25.044;2023-04-23T04:18:36;100896.51;;;9.09;34.06
73518;BME280;61766;60.318;25.044;2023-04-23T04:21:01;100900.12;;;9.22;34.24
73518;BME280;61766;60.318;25.044;2023-04-23T04:23:27;100903.40;;;9.30;34.44
73518;BME280;61766;60.318;25.044;2023-04-23T04:25:51;100904.45;;;9.46;34.52
73518;BME280;61766;60.318;25.044;2023-04-23T04:28:16;100904.03;;;9.56;34.81
73518;BME280;61766;60.318;25.044;2023-04-23T04:30:42;100902.05;;;9.45;34.80
73518;BME280;61766;60.318;25.044;2023-04-23T04:33:07;100901.25;;;9.85;34.96
73518;BME280;61766;60.318;25.044;2023-04-23T04:35:32;100901.30;;;9.63;34.92
73518;BME280;61766;60.318;25.044;2023-04-23T04:37:57;100900.85;;;9.71;35.23
73518;BME280;61766;60.318;25.044;2023-04-23T04:40:22;100896.89;;;9.85;35.09
73518;BME280;61766;60.318;25.044;2023-04-23T04:42:47;100893.93;;;10.03;34.73
73518;BME280;61766;60.318;25.044;2023-04-23T04:45:13;100895.01;;;9.63;35.03
73518;BME280;61766;60.318;25.044;2023-04-23T04:47:38;100891.19;;;10.33;34.71
73518;BME280;61766;60.318;25.044;2023-04-23T04:50:04;100890.96;;;9.82;35.21
73518;BME280;61766;60.318;25.044;2023-04-23T04:52:28;100890.82;;;9.95;34.61
73518;BME280;61766;60.318;25.044;2023-04-23T04:54:53;100888.65;;;10.36;34.24
73518;BME280;61766;60.318;25.044;2023-04-23T04:57:18;100894.88;;;10.60;33.89
73518;BME280;61766;60.318;25.044;2023-04-23T04:59:44;100896.83;;;10.44;33.48
73518;BME280;61766;60.318;25.044;2023-04-23T05:02:08;100898.47;;;11.06;32.64
73518;BME280;61766;60.318;25.044;2023-04-23T05:04:34;100899.10;;;11.15;32.69
73518;BME280;61766;60.318;25.044;2023-04-23T05:06:59;100899.80;;;10.98;32.83
73518;BME280;61766;60.318;25.044;2023-04-23T05:09:24;100899.71;;;11.27;32.99
73518;BME280;61766;60.318;25.044;2023-04-23T05:11:49;100898.08;;;11.53;32.39
73518;BME280;61766;60.318;25.044;2023-04-23T05:14:14;100895.35;;;11.64;31.98
73518;BME280;61766;60.318;25.044;2023-04-23T05:16:39;100892.04;;;12.17;31.80
73518;BME280;61766;60.318;25.044;2023-04-23T05:19:04;100888.84;;;12.28;31.36
73518;BME280;61766;60.318;25.044;2023-04-23T05:21:29;100888.06;;;12.95;31.03
73518;BME280;61766;60.318;25.044;2023-04-23T05:23:54;100887.74;;;13.09;31.11
73518;BME280;61766;60.318;25.044;2023-04-23T05:26:19;100888.38;;;13.09;30.34
73518;BME280;61766;60.318;25.044;2023-04-23T05:28:44;100882.29;;;13.25;30.05
73518;BME280;61766;60.318;25.044;2023-04-23T05:31:09;100881.56;;;13.44;29.96
73518;BME280;61766;60.318;25.044;2023-04-23T05:33:35;100883.10;;;13.50;29.87
73518;BME280;61766;60.318;25.044;2023-04-23T05:36:00;100882.37;;;13.55;29.97
73518;BME280;61766;60.318;25.044;2023-04-23T05:38:25;100884.20;;;13.79;29.31
73518;BME280;61766;60.318;25.044;2023-04-23T05:40:50;100881.80;;;14.35;28.73
73518;BME280;61766;60.318;25.044;2023-04-23T05:43:15;100881.73;;;14.33;28.44
73518;BME280;61766;60.318;25.044;2023-04-23T05:45:40;100885.73;;;13.76;28.07
73518;BME280;61766;60.318;25.044;2023-04-23T05:48:05;100886.95;;;14.40;27.80
73518;BME280;61766;60.318;25.044;2023-04-23T05:50:30;100888.42;;;14.23;27.90
73518;BME280;61766;60.318;25.044;2023-04-23T05:52:55;100888.90;;;13.62;28.22
73518;BME280;61766;60.318;25.044;2023-04-23T05:55:21;100886.17;;;14.33;28.10
73518;BME280;61766;60.318;25.044;2023-04-23T05:57:45;100885.64;;;13.44;29.24
73518;BME280;61766;60.318;25.044;2023-04-23T06:00:11;100890.42;;;13.69;29.58
73518;BME280;61766;60.318;25.044;2023-04-23T06:02:35;100889.01;;;13.68;29.53
73518;BME280;61766;60.318;25.044;2023-04-23T06:05:00;100889.77;;;13.63;29.83
73518;BME280;61766;60.318;25.044;2023-04-23T06:07:25;100889.74;;;13.60;29.96
73518;BME280;61766;60.318;25.044;2023-04-23T06:09:50;100890.74;;;14.22;29.34
73518;BME280;61766;60.318;25.044;2023-04-23T06:12:15;100890.93;;;13.69;29.87
73518;BME280;61766;60.318;25.044;2023-04-23T06:14:40;100894.91;;;13.32;30.45
73518;BME280;61766;60.318;25.044;2023-04-23T06:17:05;100894.52;;;13.94;30.09
73518;BME280;61766;60.318;25.044;2023-04-23T06:19:30;100892.13;;;13.77;30.36
73518;BME280;61766;60.318;25.044;2023-04-23T06:21:55;100890.22;;;14.01;30.21
73518;BME280;61766;60.318;25.044;2023-04-23T06:24:21;100888.98;;;13.79;30.09
73518;BME280;61766;60.318;25.044;2023-04-23T06:26:46;100887.22;;;13.53;30.35
73518;BME280;61766;60.318;25.044;2023-04-23T06:29:11;100888.61;;;13.43;30.49
73518;BME280;61766;60.318;25.044;2023-04-23T06:31:37;100885.37;;;13.34;30.20
73518;BME280;61766;60.318;25.044;2023-04-23T06:34:02;100883.72;;;13.04;30.75
73518;BME280;61766;60.318;25.044;2023-04-23T06:36:27;100884.51;;;14.17;29.86
73518;BME280;61766;60.318;25.044;2023-04-23T06:38:52;100885.90;;;13.72;29.70
73518;BME280;61766;60.318;25.044;2023-04-23T06:41:18;100885.94;;;13.95;29.80
73518;BME280;61766;60.318;25.044;2023-04-23T06:43:44;100887.31;;;13.26;30.30
73518;BME280;61766;60.318;25.044;2023-04-23T06:46:10;100883.82;;;13.44;30.43
73518;BME280;61766;60.318;25.044;2023-04-23T06:48:35;100884.08;;;13.42;29.99
73518;BME280;61766;60.318;25.044;2023-04-23T06:51:02;100881.67;;;13.93;29.97
73518;BME280;61766;60.318;25.044;2023-04-23T06:53:27;100871.29;;;14.84;28.84
73518;BME280;61766;60.318;25.044;2023-04-23T06:55:53;100876.23;;;14.00;29.62
73518;BME280;61766;60.318;25.044;2023-04-23T06:58:19;100879.83;;;14.13;29.00
73518;BME280;61766;60.318;25.044;2023-04-23T07:00:45;100870.10;;;14.72;28.18
73518;BME280;61766;60.318;25.044;2023-04-23T07:03:11;100869.80;;;14.37;28.75
73518;BME280;61766;60.318;25.044;2023-04-23T07:05:36;100865.29;;;15.53;27.14
73518;BME280;61766;60.318;25.044;2023-04-23T07:08:02;100866.30;;;15.53;26.76
73518;BME280;61766;60.318;25.044;2023-04-23T07:10:28;100873.04;;;14.22;26.85
73518;BME280;61766;60.318;25.044;2023-04-23T07:12:54;100866.95;;;14.82;26.85
73518;BME280;61766;60.318;25.044;2023-04-23T07:15:20;100867.69;;;14.84;26.33
73518;BME280;61766;60.318;25.044;2023-04-23T07:17:46;100870.04;;;13.23;27.31
73518;BME280;61766;60.318;25.044;2023-04-23T07:20:11;100874.19;;;13.24;27.60
73518;BME280;61766;60.318;25.044;2023-04-23T07:22:37;100867.61;;;13.31;28.22
73518;BME280;61766;60.318;25.044;2023-04-23T07:25:04;100867.23;;;12.94;28.03
73518;BME280;61766;60.318;25.044;2023-04-23T07:27:29;100867.50;;;14.43;26.86
73518;BME280;61766;60.318;25.044;2023-04-23T07:29:55;100872.86;;;13.88;26.41
73518;BME280;61766;60.318;25.044;2023-04-23T07:32:21;100868.31;;;14.91;25.58
73518;BME280;61766;60.318;25.044;2023-04-23T07:34:46;100869.59;;;14.72;25.27
73518;BME280;61766;60.318;25.044;2023-04-23T07:37:12;100868.45;;;13.68;25.84
73518;BME280;61766;60.318;25.044;2023-04-23T07:39:38;100868.76;;;14.85;24.88
73518;BME280;61766;60.318;25.044;2023-04-23T07:42:04;100869.87;;;14.97;24.81
73518;BME280;61766;60.318;25.044;2023-04-23T07:44:30;100868.18;;;15.30;24.03
73518;BME280;61766;60.318;25.044;2023-04-23T07:46:56;100864.81;;;15.44;23.92
73518;BME280;61766;60.318;25.044;2023-04-23T07:49:21;100858.46;;;15.70;23.87
73518;BME280;61766;60.318;25.044;2023-04-23T07:51:47;100861.50;;;15.34;24.74
73518;BME280;61766;60.318;25.044;2023-04-23T07:54:13;100867.32;;;14.54;25.48
73518;BME280;61766;60.318;25.044;2023-04-23T07:56:39;100869.31;;;14.00;26.12
73518;BME280;61766;60.318;25.044;2023-04-23T07:59:05;100857.88;;;14.58;26.31
73518;BME280;61766;60.318;25.044;2023-04-23T08:01:32;100857.98;;;14.28;25.76
73518;BME280;61766;60.318;25.044;2023-04-23T08:03:56;100856.65;;;15.48;25.09
73518;BME280;61766;60.318;25.044;2023-04-23T08:06:22;100853.24;;;15.24;24.78
73518;BME280;61766;60.318;25.044;2023-04-23T08:08:48;100856.76;;;15.18;25.02
73518;BME280;61766;60.318;25.044;2023-04-23T08:11:13;100850.94;;;15.02;25.59
73518;BME280;61766;60.318;25.044;2023-04-23T08:13:39;100850.43;;;15.10;25.21
73518;BME280;61766;60.318;25.044;2023-04-23T08:16:05;100849.93;;;14.98;25.13
73518;BME280;61766;60.318;25.044;2023-04-23T08:18:31;100854.60;;;15.49;24.74
73518;BME280;61766;60.318;25.044;2023-04-23T08:20:57;100851.92;;;15.48;24.29
73518;BME280;61766;60.318;25.044;2023-04-23T08:23:23;100850.61;;;16.43;23.89
73518;BME280;61766;60.318;25.044;2023-04-23T08:25:48;100853.01;;;15.43;24.42
73518;BME280;61766;60.318;25.044;2023-04-23T08:28:14;100851.71;;;16.44;24.35
73518;BME280;61766;60.318;25.044;2023-04-23T08:30:40;100859.41;;;15.04;24.56
73518;BME280;61766;60.318;25.044;2023-04-23T08:33:06;100842.76;;;16.84;23.56
73518;BME280;61766;60.318;25.044;2023-04-23T08:35:31;100839.93;;;17.65;22.95
73518;BME280;61766;60.318;25.044;2023-04-23T08:37:57;100844.72;;;17.34;22.74
73518;BME280;61766;60.318;25.044;2023-04-23T08:40:23;100844.09;;;17.03;23.22
73518;BME280;61766;60.318;25.044;2023-04-23T08:42:52;100842.27;;;15.31;24.70
73518;BME280;61766;60.318;25.044;2023-04-23T08:45:15;100838.25;;;15.97;24.29
73518;BME280;61766;60.318;25.044;2023-04-23T08:47:41;100837.07;;;15.99;24.66
73518;BME280;61766;60.318;25.044;2023-04-23T08:50:07;100839.85;;;16.31;24.50
73518;BME280;61766;60.318;25.044;2023-04-23T08:52:33;100841.37;;;14.97;25.62
73518;BME280;61766;60.318;25.044;2023-04-23T08:54:59;100843.22;;;14.41;26.35
73518;BME280;61766;60.318;25.044;2023-04-23T08:57:24;100840.43;;;15.51;25.09
73518;BME280;61766;60.318;25.044;2023-04-23T08:59:50;100842.28;;;15.75;24.70
73518;BME280;61766;60.318;25.044;2023-04-23T09:02:16;100836.71;;;16.52;24.58
73518;BME280;61766;60.318;25.044;2023-04-23T09:04:41;100836.01;;;15.93;25.07
73518;BME280;61766;60.318;25.044;2023-04-23T09:07:07;100831.50;;;16.81;24.19
73518;BME280;61766;60.318;25.044;2023-04-23T09:09:32;100835.79;;;14.69;25.86
73518;BME280;61766;60.318;25.044;2023-04-23T09:11:59;100838.27;;;15.69;25.33
73518;BME280;61766;60.318;25.044;2023-04-23T09:14:24;100831.98;;;15.91;25.42
73518;BME280;61766;60.318;25.044;2023-04-23T09:16:51;100834.96;;;15.84;25.75
73518;BME280;61766;60.318;25.044;2023-04-23T09:19:17;100839.56;;;15.66;25.67
73518;BME280;61766;60.318;25.044;2023-04-23T09:21:42;100831.58;;;16.13;25.78
73518;BME280;61766;60.318;25.044;2023-04-23T09:24:09;100828.20;;;15.89;25.87
73518;BME280;61766;60.318;25.044;2023-04-23T09:26:33;100830.10;;;16.14;25.51
73518;BME280;61766;60.318;25.044;2023-04-23T09:28:58;100833.76;;;16.36;24.84
73518;BME280;61766;60.318;25.044;2023-04-23T09:31:24;100827.90;;;15.68;25.28
73518;BME280;61766;60.318;25.044;2023-04-23T09:33:52;100829.02;;;16.59;24.07
73518;BME280;61766;60.318;25.044;2023-04-23T09:36:19;100823.71;;;16.71;24.27
73518;BME280;61766;60.318;25.044;2023-04-23T09:38:42;100821.47;;;15.93;25.24
73518;BME280;61766;60.318;25.044;2023-04-23T09:41:23;100817.16;;;16.83;24.02
73518;BME280;61766;60.318;25.044;2023-04-23T09:43:33;100819.74;;;16.97;23.81
73518;BME280;61766;60.318;25.044;2023-04-23T09:45:59;100813.30;;;17.21;23.56
73518;BME280;61766;60.318;25.044;2023-04-23T09:50:54;100814.41;;;16.00;24.52
73518;BME280;61766;60.318;25.044;2023-04-23T09:53:18;100810.12;;;16.40;24.03
73518;BME280;61766;60.318;25.044;2023-04-23T09:55:43;100806.50;;;17.09;23.27
73518;BME280;61766;60.318;25.044;2023-04-23T09:58:12;100815.32;;;15.49;24.92
73518;BME280;61766;60.318;25.044;2023-04-23T10:00:35;100807.09;;;15.16;25.35
73518;BME280;61766;60.318;25.044;2023-04-23T10:02:59;100803.63;;;17.28;23.42
73518;BME280;61766;60.318;25.044;2023-04-23T10:05:25;100798.21;;;15.99;24.93
73518;BME280;61766;60.318;25.044;2023-04-23T10:07:51;100806.01;;;15.57;24.86
73518;BME280;61766;60.318;25.044;2023-04-23T10:10:18;100797.86;;;14.76;25.69
73518;BME280;61766;60.318;25.044;2023-04-23T10:12:43;100802.19;;;15.12;25.67
73518;BME280;61766;60.318;25.044;2023-04-23T10:15:09;100798.93;;;16.69;23.88
73518;BME280;61766;60.318;25.044;2023-04-23T10:17:34;100794.97;;;17.31;24.21
73518;BME280;61766;60.318;25.044;2023-04-23T10:20:00;100793.82;;;16.80;24.50
73518;BME280;61766;60.318;25.044;2023-04-23T10:22:27;100786.98;;;16.98;24.28
73518;BME280;61766;60.318;25.044;2023-04-23T10:24:52;100792.10;;;15.11;25.70
73518;BME280;61766;60.318;25.044;2023-04-23T10:27:17;100789.50;;;16.96;24.57
73518;BME280;61766;60.318;25.044;2023-04-23T10:29:43;100792.35;;;17.01;24.19
73518;BME280;61766;60.318;25.044;2023-04-23T10:32:09;100787.74;;;15.04;26.42
73518;BME280;61766;60.318;25.044;2023-04-23T10:34:34;100781.64;;;16.35;24.56
73518;BME280;61766;60.318;25.044;2023-04-23T10:37:01;100775.75;;;16.71;24.77
73518;BME280;61766;60.318;25.044;2023-04-23T10:39:27;100777.86;;;18.17;23.33
73518;BME280;61766;60.318;25.044;2023-04-23T10:41:53;100775.41;;;16.97;24.09
73518;BME280;61766;60.318;25.044;2023-04-23T10:44:19;100781.49;;;17.48;23.81
73518;BME280;61766;60.318;25.044;2023-04-23T10:46:51;100773.82;;;17.33;23.59
73518;BME280;61766;60.318;25.044;2023-04-23T10:49:11;100774.75;;;17.21;24.15
73518;BME280;61766;60.318;25.044;2023-04-23T10:51:35;100777.54;;;16.96;23.89
73518;BME280;61766;60.318;25.044;2023-04-23T10:54:02;100774.93;;;16.95;24.08
73518;BME280;61766;60.318;25.044;2023-04-23T10:56:27;100780.36;;;17.60;23.62
73518;BME280;61766;60.318;25.044;2023-04-23T10:58:52;100772.22;;;16.62;24.37
73518;BME280;61766;60.318;25.044;2023-04-23T11:01:18;100761.04;;;17.21;23.94
73518;BME280;61766;60.318;25.044;2023-04-23T11:03:44;100762.61;;;16.61;24.27
73518;BME280;61766;60.318;25.044;2023-04-23T11:06:12;100762.59;;;15.89;24.56
73518;BME280;61766;60.318;25.044;2023-04-23T11:08:35;100764.84;;;16.40;24.53
73518;BME280;61766;60.318;25.044;2023-04-23T11:11:05;100754.84;;;15.66;25.32
73518;BME280;61766;60.318;25.044;2023-04-23T11:13:27;100762.20;;;15.07;25.67
73518;BME280;61766;60.318;25.044;2023-04-23T11:18:18;100757.57;;;16.46;24.27
73518;BME280;61766;60.318;25.044;2023-04-23T11:20:46;100756.12;;;17.72;23.45
73518;BME280;61766;60.318;25.044;2023-04-23T11:25:36;100743.44;;;17.06;24.57
73518;BME280;61766;60.318;25.044;2023-04-23T11:28:01;100750.23;;;15.97;24.77
73518;BME280;61766;60.318;25.044;2023-04-23T11:30:28;100748.03;;;17.75;23.51
73518;BME280;61766;60.318;25.044;2023-04-23T11:32:54;100743.89;;;18.04;22.92
73518;BME280;61766;60.318;25.044;2023-04-23T11:35:19;100745.16;;;18.09;22.84
73518;BME280;61766;60.318;25.044;2023-04-23T11:37:44;100741.55;;;17.61;22.84
73518;BME280;61766;60.318;25.044;2023-04-23T11:40:11;100740.09;;;17.22;23.32
73518;BME280;61766;60.318;25.044;2023-04-23T11:42:40;100743.94;;;16.34;23.84
73518;BME280;61766;60.318;25.044;2023-04-23T11:45:01;100747.74;;;16.68;23.49
73518;BME280;61766;60.318;25.044;2023-04-23T11:47:27;100736.14;;;16.32;23.95
73518;BME280;61766;60.318;25.044;2023-04-23T11:49:52;100739.57;;;17.18;23.48
73518;BME280;61766;60.318;25.044;2023-04-23T11:52:18;100748.32;;;17.84;22.73
73518;BME280;61766;60.318;25.044;2023-04-23T11:54:44;100744.66;;;17.75;22.67
73518;BME280;61766;60.318;25.044;2023-04-23T11:57:10;100736.88;;;17.61;22.65
73518;BME280;61766;60.318;25.044;2023-04-23T11:59:35;100734.24;;;18.35;22.54
73518;BME280;61766;60.318;25.044;2023-04-23T12:02:01;100736.01;;;17.61;22.77
73518;BME280;61766;60.318;25.044;2023-04-23T12:04:28;100727.26;;;17.45;23.13
73518;BME280;61766;60.318;25.044;2023-04-23T12:06:54;100727.63;;;17.70;22.62
73518;BME280;61766;60.318;25.044;2023-04-23T12:09:21;100722.37;;;17.74;22.20
73518;BME280;61766;60.318;25.044;2023-04-23T12:11:45;100722.18;;;18.14;22.05
73518;BME280;61766;60.318;25.044;2023-04-23T12:14:12;100717.62;;;18.66;21.69
73518;BME280;61766;60.318;25.044;2023-04-23T12:16:37;100718.53;;;18.88;21.14
73518;BME280;61766;60.318;25.044;2023-04-23T12:19:01;100709.60;;;18.77;21.23
73518;BME280;61766;60.318;25.044;2023-04-23T12:21:27;100709.94;;;19.07;21.21
73518;BME280;61766;60.318;25.044;2023-04-23T12:23:53;100710.70;;;17.08;22.49
73518;BME280;61766;60.318;25.044;2023-04-23T12:26:19;100705.78;;;18.03;21.59
73518;BME280;61766;60.318;25.044;2023-04-23T12:28:45;100696.08;;;18.36;21.29
73518;BME280;61766;60.318;25.044;2023-04-23T12:31:10;100702.11;;;17.21;22.43
73518;BME280;61766;60.318;25.044;2023-04-23T12:33:36;100697.87;;;18.05;21.72
73518;BME280;61766;60.318;25.044;2023-04-23T12:36:02;100693.62;;;16.48;22.96
73518;BME280;61766;60.318;25.044;2023-04-23T12:38:28;100687.46;;;18.55;20.88
73518;BME280;61766;60.318;25.044;2023-04-23T12:40:55;100686.54;;;18.99;21.07